x

East Lake Ontario - 20nm North Northeast Of Rochester, Ny (45012) Wave Buoy

9:50am - Thu 31st Jul 2014 All times are CDT. -5 hours from GMT.

  • Sig Wave height 2.0ft
  • Peak Period 4s
  • Average Period 3s
  • Wind
    11mph, 13mph gusts
  • Sea Temp 66°f
  • Air Temp 68°f
  • Sea Pressure 1016.3mb
  • East Lake Ontario  - 20nm North Northeast Of Rochester, Ny
  • East Lake Ontario  - 20nm North Northeast Of Rochester, Ny

More Historic Weather Station data

Upgrade to MSW Pro to gain access to the past 30 days of data for over 8000 Wavebouys and Weather Stations around the globe.

Join Pro

Comparision Forecast

View Surf forecast
   
Thu 07/31 9:50am 2ft 4s 3s 11 13 mph 1016.3mb 66f 68f
8:50am 2ft 4s 3s 11 13 mph 1015.7mb 65f 66f
7:50am 2.5ft 4s 3s 13 18 mph 1015.7mb 65f 64f
6:50am 2.5ft 4s 4s 11 13 mph 1015.5mb 64f 64f
5:50am 2.5ft 4s 3s 18 22 mph 1015.3mb 65f 62f
4:50am 1.3ft 3s 3s 16 18 mph 1015mb 66f 64f
3:50am 1.3ft 3s 3s 13 16 mph 1014.7mb 66f 65f
2:50am 1ft 3s 3s 11 13 mph 1014.6mb 66f 65f
1:50am 1ft 3s 3s 9 11 mph 1014.5mb 66f 65f
12:50am 1.3ft 3s 3s 11
mph
1014.8mb 67f 65f
Wed 07/30 11:50pm 1.3ft 3s 3s 11 13 mph 1015mb 67f 65f
10:50pm 1.3ft 3s 3s 11 13 mph 1015.2mb 67f 66f
9:50pm 0.7ft  -  3s 9 11 mph 1015.2mb 67f 66f
8:50pm 0.7ft  -  3s 7 9 mph 1015.3mb 67f 66f
7:50pm 0.7ft  -  3s 9 11 mph 1014.9mb 67f 66f
6:50pm 0.7ft  -  3s 7 9 mph 1014.7mb 67f 66f
5:50pm 0.7ft  -  3s 9 11 mph 1014.4mb 66f 67f
4:50pm 1ft 4s 3s 7 9 mph 1014.1mb 66f 66f
3:50pm 1ft 4s 3s 7 9 mph 1014.3mb 66f 68f
2:50pm 1ft 4s 3s 11 13 mph 1014.2mb 66f 69f
1:50pm 1ft 4s 3s 11
mph
1014.2mb 66f 67f
12:50pm 1ft 3s 3s 7
mph
1014.5mb 65f 67f
11:50am 1.3ft 3s 3s 7 9 mph 1014.8mb 66f 70f
10:50am 1.3ft 3s 3s 9
mph
1015.2mb 66f 70f
9:50am 1.3ft 3s 3s 11 13 mph 1015.3mb 66f 70f
8:50am 1.6ft 3s 3s 13
mph
1015mb 66f 69f
7:50am 1.3ft 3s 3s 11 13 mph 1014.9mb 66f 67f
6:50am 1.3ft 3s 3s 11 13 mph 1014.9mb 66f 63f
5:50am 1.3ft 3s 3s 11 16 mph 1014.9mb 66f 64f
4:50am 1.6ft 3s 3s 11 16 mph 1014.6mb 66f 63f
3:50am 2ft 3s 3s 7
mph
1014.2mb 67f 62f
2:50am 2ft 4s 3s 11 13 mph 1014.1mb 67f 64f
1:50am 1.6ft 3s 3s 9
mph
1014.3mb 66f 63f
12:50am 1.6ft 3s 3s 13 16 mph 1014.3mb 66f 64f
Tue 07/29 11:50pm 1ft 3s 3s 11 16 mph 1014.3mb 65f 65f
10:50pm 1ft 3s 3s 11 13 mph 1014.5mb 65f 66f
9:50pm 0.7ft  -  3s 9 11 mph 1014.5mb 65f 66f
8:50pm 0.7ft  -  3s 7 9 mph 1014.7mb 66f 66f
7:50pm 1ft 3s 3s 7 9 mph 1014.3mb 66f 66f
6:50pm 1ft 3s 3s 9 11 mph 1014.2mb 66f 66f
5:50pm 1.3ft 3s 3s 11
mph
1013.9mb 66f 67f
4:50pm 1.3ft 3s 3s 11 13 mph 1013.7mb 67f 70f
3:50pm 1.3ft 3s 3s 13 16 mph 1013.4mb 67f 70f
2:50pm 1.3ft 2s 3s 13 16 mph 1013.4mb 67f 70f
1:50pm 1ft 3s 3s 13
mph
1013.3mb 66f 69f
12:50pm 1ft 4s 3s 11 13 mph 1013.4mb 67f 68f
11:50am 1.3ft 3s 3s 11 13 mph 1013.5mb 67f 68f
10:50am 1.3ft 3s 3s 11 13 mph 1013.3mb 67f 67f
9:50am 1.6ft 4s 4s 7 9 mph 1013mb 67f 67f
8:50am 1.6ft 4s 4s 4 7 mph 1012.8mb 66f 65f
7:50am 1.6ft 5s 4s 7 9 mph 1012.5mb 65f 65f
6:50am 2ft 5s 4s 9 11 mph 1011.9mb 65f 62f
5:50am 2ft 4s 3s 9
mph
1011.4mb 65f 61f
4:50am 1.6ft 4s 3s 11 13 mph 1010.7mb 65f 61f
3:50am 2.5ft 3s 3s 16 18 mph 1010.1mb 66f 62f
2:50am 2ft 3s 3s 16 18 mph 1009.7mb 66f 63f
12:50am 2ft 3s 3s 16 20 mph 1009.7mb 66f 64f
Mon 07/28 11:50pm 1.6ft 3s 3s 16 20 mph 1009.7mb 66f 64f
10:50pm 1.6ft 4s 3s 13 16 mph 1009.7mb 66f 64f
9:50pm 2.5ft 4s 3s 16 20 mph 1009.5mb 67f 65f
8:50pm 2.5ft 4s 3s 18 22 mph 1009.1mb 67f 65f
7:50pm 1.6ft 3s 3s 20 25 mph 1008.4mb 67f 66f
6:50pm 2ft 5s 4s 9 11 mph 1008.1mb 67f 67f
5:50pm 2.5ft 4s 4s 7 9 mph 1007.8mb 67f 65f
4:50pm 3ft 4s 4s 9
mph
1007.1mb 67f 65f
3:50pm 3.5ft 4s 4s 18 25 mph 1006.6mb 67f 64f
1:50pm  -   -   -  25 29 mph 1005.2mb 66f 61f
12:50pm  -   -   -  27 31 mph 1004.4mb 67f 61f
11:50am 5ft 4s 4s 25 31 mph 1003.9mb 67f 61f
10:50am 4.5ft 4s 4s 27 31 mph 1003.3mb 66f 61f
9:50am 5ft 4s 4s 25 31 mph 1002.6mb 67f 63f
8:50am 5ft 4s 4s 27 31 mph 1001.9mb 68f 64f
7:50am 4.5ft 5s 4s 22 29 mph 1001.6mb 68f 64f
6:50am 4.5ft 5s 4s 25 29 mph 1001.2mb 68f 64f
5:50am 4ft 5s 4s 25 31 mph 1000.9mb 68f 64f
4:50am 3ft 4s 4s 22 27 mph 1001.4mb 68f 64f
3:50am 2.5ft 4s 3s 20 25 mph 1001.6mb 68f 65f
2:50am 1.6ft 3s 3s 16 20 mph 1001.7mb 68f 66f
1:50am 1.3ft 3s 3s 13 16 mph 1002.7mb 67f 67f
12:50am 1.6ft 3s 3s 9 11 mph 1003.2mb 67f 66f
Sun 07/27 11:50pm 1.6ft 3s 3s 11 13 mph 1002.4mb 67f 69f
10:50pm 0.7ft  -  3s 13 18 mph 1002.6mb 68f 70f
9:50pm 0.7ft  -  3s 7 9 mph 1002.9mb 68f 70f
8:50pm 0.7ft  -  4s 9 11 mph 1002.9mb 68f 70f
7:50pm 0.7ft  -  3s 7
mph
1003.3mb 68f 69f
6:50pm 1ft 4s 3s 2 4 mph 1003.4mb 69f 70f
5:50pm 1ft 4s 3s 2
mph
1004.1mb 69f 73f
4:50pm 1.3ft 4s 3s 4
mph
1003.8mb 69f 78f